sensor_id;sensor_type;location;lat;lon;timestamp;temperature;humidity
33067;DHT22;19428;49.024;8.366;2024-02-23T00:01:46;8.60;99.90
33067;DHT22;19428;49.024;8.366;2024-02-23T00:04:12;8.60;99.90
33067;DHT22;19428;49.024;8.366;2024-02-23T00:06:38;8.60;99.30
33067;DHT22;19428;49.024;8.366;2024-02-23T00:09:03;8.60;97.40
33067;DHT22;19428;49.024;8.366;2024-02-23T00:11:30;8.60;94.00
33067;DHT22;19428;49.024;8.366;2024-02-23T00:13:55;8.50;98.60
33067;DHT22;19428;49.024;8.366;2024-02-23T00:16:21;8.50;99.90
33067;DHT22;19428;49.024;8.366;2024-02-23T00:18:46;8.50;93.30
33067;DHT22;19428;49.024;8.366;2024-02-23T00:21:12;8.50;93.80
33067;DHT22;19428;49.024;8.366;2024-02-23T00:23:38;8.50;91.80
33067;DHT22;19428;49.024;8.366;2024-02-23T00:26:03;8.50;93.30
33067;DHT22;19428;49.024;8.366;2024-02-23T00:28:29;8.40;95.70
33067;DHT22;19428;49.024;8.366;2024-02-23T00:30:54;8.40;95.40
33067;DHT22;19428;49.024;8.366;2024-02-23T00:33:20;8.40;95.10
33067;DHT22;19428;49.024;8.366;2024-02-23T00:35:46;8.30;98.20
33067;DHT22;19428;49.024;8.366;2024-02-23T00:38:11;8.40;93.70
33067;DHT22;19428;49.024;8.366;2024-02-23T00:40:37;8.40;96.80
33067;DHT22;19428;49.024;8.366;2024-02-23T00:43:04;8.40;99.40
33067;DHT22;19428;49.024;8.366;2024-02-23T00:45:29;8.30;98.90
33067;DHT22;19428;49.024;8.366;2024-02-23T00:47:55;8.30;95.80
33067;DHT22;19428;49.024;8.366;2024-02-23T00:50:22;8.30;93.40
33067;DHT22;19428;49.024;8.366;2024-02-23T00:52:49;8.30;95.80
33067;DHT22;19428;49.024;8.366;2024-02-23T00:55:14;8.30;81.80
33067;DHT22;19428;49.024;8.366;2024-02-23T00:57:40;8.30;88.50
33067;DHT22;19428;49.024;8.366;2024-02-23T01:00:06;8.20;86.60
33067;DHT22;19428;49.024;8.366;2024-02-23T01:02:32;8.30;77.10
33067;DHT22;19428;49.024;8.366;2024-02-23T01:04:58;8.30;71.50
33067;DHT22;19428;49.024;8.366;2024-02-23T01:07:24;8.20;77.60
33067;DHT22;19428;49.024;8.366;2024-02-23T01:09:50;8.20;75.00
33067;DHT22;19428;49.024;8.366;2024-02-23T01:12:16;8.10;81.90
33067;DHT22;19428;49.024;8.366;2024-02-23T01:14:42;8.20;73.90
33067;DHT22;19428;49.024;8.366;2024-02-23T01:17:07;8.10;76.20
33067;DHT22;19428;49.024;8.366;2024-02-23T01:19:33;8.10;72.20
33067;DHT22;19428;49.024;8.366;2024-02-23T01:21:58;8.10;83.90
33067;DHT22;19428;49.024;8.366;2024-02-23T01:24:27;8.10;79.90
33067;DHT22;19428;49.024;8.366;2024-02-23T01:26:55;8.10;78.90
33067;DHT22;19428;49.024;8.366;2024-02-23T01:29:21;8.10;83.10
33067;DHT22;19428;49.024;8.366;2024-02-23T01:31:48;8.00;84.00
33067;DHT22;19428;49.024;8.366;2024-02-23T01:34:14;8.10;80.00
33067;DHT22;19428;49.024;8.366;2024-02-23T01:36:39;8.00;88.50
33067;DHT22;19428;49.024;8.366;2024-02-23T01:39:05;8.00;87.00
33067;DHT22;19428;49.024;8.366;2024-02-23T01:41:31;8.10;77.20
33067;DHT22;19428;49.024;8.366;2024-02-23T01:43:57;8.10;76.70
33067;DHT22;19428;49.024;8.366;2024-02-23T01:46:23;8.00;79.20
33067;DHT22;19428;49.024;8.366;2024-02-23T01:48:49;8.00;77.40
33067;DHT22;19428;49.024;8.366;2024-02-23T01:51:14;8.00;88.40
33067;DHT22;19428;49.024;8.366;2024-02-23T01:53:40;8.00;80.00
33067;DHT22;19428;49.024;8.366;2024-02-23T01:56:06;8.00;82.50
33067;DHT22;19428;49.024;8.366;2024-02-23T01:58:33;8.00;83.40
33067;DHT22;19428;49.024;8.366;2024-02-23T02:01:00;7.90;86.90
33067;DHT22;19428;49.024;8.366;2024-02-23T02:03:26;7.90;73.10
33067;DHT22;19428;49.024;8.366;2024-02-23T02:05:53;7.90;65.20
33067;DHT22;19428;49.024;8.366;2024-02-23T02:08:19;8.00;55.60
33067;DHT22;19428;49.024;8.366;2024-02-23T02:10:45;8.00;52.40
33067;DHT22;19428;49.024;8.366;2024-02-23T02:13:12;8.00;51.90
33067;DHT22;19428;49.024;8.366;2024-02-23T02:15:38;8.00;53.40
33067;DHT22;19428;49.024;8.366;2024-02-23T02:18:04;8.00;56.30
33067;DHT22;19428;49.024;8.366;2024-02-23T02:20:32;7.90;61.10
33067;DHT22;19428;49.024;8.366;2024-02-23T02:22:59;7.90;68.90
33067;DHT22;19428;49.024;8.366;2024-02-23T02:25:24;7.80;67.00
33067;DHT22;19428;49.024;8.366;2024-02-23T02:27:50;7.80;66.20
33067;DHT22;19428;49.024;8.366;2024-02-23T02:30:15;7.80;72.30
33067;DHT22;19428;49.024;8.366;2024-02-23T02:32:41;7.80;73.60
33067;DHT22;19428;49.024;8.366;2024-02-23T02:35:07;7.80;79.60
33067;DHT22;19428;49.024;8.366;2024-02-23T02:37:33;7.70;83.50
33067;DHT22;19428;49.024;8.366;2024-02-23T02:39:58;7.70;89.60
33067;DHT22;19428;49.024;8.366;2024-02-23T02:42:24;7.70;89.40
33067;DHT22;19428;49.024;8.366;2024-02-23T02:44:49;7.70;92.80
33067;DHT22;19428;49.024;8.366;2024-02-23T02:47:15;7.60;94.70
33067;DHT22;19428;49.024;8.366;2024-02-23T02:49:40;7.60;93.20
33067;DHT22;19428;49.024;8.366;2024-02-23T02:52:06;7.60;92.90
33067;DHT22;19428;49.024;8.366;2024-02-23T02:54:33;7.60;89.10
33067;DHT22;19428;49.024;8.366;2024-02-23T02:56:59;7.60;93.10
33067;DHT22;19428;49.024;8.366;2024-02-23T02:59:24;7.60;91.30
33067;DHT22;19428;49.024;8.366;2024-02-23T03:01:50;7.60;90.90
33067;DHT22;19428;49.024;8.366;2024-02-23T03:04:16;7.60;90.50
33067;DHT22;19428;49.024;8.366;2024-02-23T03:06:41;7.60;85.70
33067;DHT22;19428;49.024;8.366;2024-02-23T03:09:07;7.60;91.00
33067;DHT22;19428;49.024;8.366;2024-02-23T03:11:33;7.60;88.00
33067;DHT22;19428;49.024;8.366;2024-02-23T03:13:58;7.50;82.50
33067;DHT22;19428;49.024;8.366;2024-02-23T03:16:24;7.50;70.50
33067;DHT22;19428;49.024;8.366;2024-02-23T03:18:51;7.50;61.70
33067;DHT22;19428;49.024;8.366;2024-02-23T03:21:17;7.50;59.60
33067;DHT22;19428;49.024;8.366;2024-02-23T03:23:43;7.40;59.60
33067;DHT22;19428;49.024;8.366;2024-02-23T03:26:08;7.50;52.70
33067;DHT22;19428;49.024;8.366;2024-02-23T03:28:34;7.40;42.10
33067;DHT22;19428;49.024;8.366;2024-02-23T03:31:02;7.40;42.10
33067;DHT22;19428;49.024;8.366;2024-02-23T03:33:28;7.40;37.30
33067;DHT22;19428;49.024;8.366;2024-02-23T03:35:54;7.50;36.80
33067;DHT22;19428;49.024;8.366;2024-02-23T03:38:21;7.50;38.20
33067;DHT22;19428;49.024;8.366;2024-02-23T03:40:46;7.40;38.90
33067;DHT22;19428;49.024;8.366;2024-02-23T03:43:12;7.40;36.40
33067;DHT22;19428;49.024;8.366;2024-02-23T03:45:37;7.50;32.60
33067;DHT22;19428;49.024;8.366;2024-02-23T03:48:03;7.50;30.70
33067;DHT22;19428;49.024;8.366;2024-02-23T03:50:30;7.50;30.00
33067;DHT22;19428;49.024;8.366;2024-02-23T03:52:55;7.40;35.80
33067;DHT22;19428;49.024;8.366;2024-02-23T03:55:21;7.40;35.50
33067;DHT22;19428;49.024;8.366;2024-02-23T03:57:47;7.40;34.40
33067;DHT22;19428;49.024;8.366;2024-02-23T04:00:13;7.40;40.20
33067;DHT22;19428;49.024;8.366;2024-02-23T04:02:39;7.40;37.20
33067;DHT22;19428;49.024;8.366;2024-02-23T04:05:05;7.40;42.90
33067;DHT22;19428;49.024;8.366;2024-02-23T04:07:31;7.40;40.10
33067;DHT22;19428;49.024;8.366;2024-02-23T04:09:57;7.40;40.90
33067;DHT22;19428;49.024;8.366;2024-02-23T04:12:22;7.40;43.10
33067;DHT22;19428;49.024;8.366;2024-02-23T04:14:48;7.30;40.50
33067;DHT22;19428;49.024;8.366;2024-02-23T04:17:13;7.30;45.90
33067;DHT22;19428;49.024;8.366;2024-02-23T04:19:40;7.30;44.70
33067;DHT22;19428;49.024;8.366;2024-02-23T04:22:07;7.30;46.70
33067;DHT22;19428;49.024;8.366;2024-02-23T04:24:38;7.30;49.70
33067;DHT22;19428;49.024;8.366;2024-02-23T04:27:07;7.30;47.90
33067;DHT22;19428;49.024;8.366;2024-02-23T04:29:33;7.30;45.10
33067;DHT22;19428;49.024;8.366;2024-02-23T04:32:02;7.30;46.80
33067;DHT22;19428;49.024;8.366;2024-02-23T04:34:28;7.30;48.60
33067;DHT22;19428;49.024;8.366;2024-02-23T04:36:55;7.30;41.80
33067;DHT22;19428;49.024;8.366;2024-02-23T04:39:21;7.20;42.30
33067;DHT22;19428;49.024;8.366;2024-02-23T04:41:47;7.20;36.10
33067;DHT22;19428;49.024;8.366;2024-02-23T04:44:12;7.20;38.40
33067;DHT22;19428;49.024;8.366;2024-02-23T04:46:38;7.20;41.20
33067;DHT22;19428;49.024;8.366;2024-02-23T04:49:03;7.20;33.50
33067;DHT22;19428;49.024;8.366;2024-02-23T04:51:29;7.20;32.40
33067;DHT22;19428;49.024;8.366;2024-02-23T04:53:54;7.20;29.80
33067;DHT22;19428;49.024;8.366;2024-02-23T04:56:21;7.20;28.90
33067;DHT22;19428;49.024;8.366;2024-02-23T04:58:47;7.20;26.50
33067;DHT22;19428;49.024;8.366;2024-02-23T05:01:12;7.30;24.70
33067;DHT22;19428;49.024;8.366;2024-02-23T05:03:38;7.30;24.10
33067;DHT22;19428;49.024;8.366;2024-02-23T05:06:04;7.30;27.80
33067;DHT22;19428;49.024;8.366;2024-02-23T05:08:30;7.30;25.50
33067;DHT22;19428;49.024;8.366;2024-02-23T05:10:56;7.30;26.60
33067;DHT22;19428;49.024;8.366;2024-02-23T05:13:22;7.30;25.80
33067;DHT22;19428;49.024;8.366;2024-02-23T05:15:47;7.30;25.10
33067;DHT22;19428;49.024;8.366;2024-02-23T05:18:13;7.30;25.50
33067;DHT22;19428;49.024;8.366;2024-02-23T05:20:39;7.30;22.70
33067;DHT22;19428;49.024;8.366;2024-02-23T05:23:05;7.20;23.60
33067;DHT22;19428;49.024;8.366;2024-02-23T05:25:30;7.10;26.70
33067;DHT22;19428;49.024;8.366;2024-02-23T05:27:56;7.00;29.00
33067;DHT22;19428;49.024;8.366;2024-02-23T05:30:22;7.10;29.20
33067;DHT22;19428;49.024;8.366;2024-02-23T05:32:47;7.10;30.00
33067;DHT22;19428;49.024;8.366;2024-02-23T05:35:13;7.00;31.70
33067;DHT22;19428;49.024;8.366;2024-02-23T05:37:39;7.00;33.10
33067;DHT22;19428;49.024;8.366;2024-02-23T05:40:05;6.90;37.70
33067;DHT22;19428;49.024;8.366;2024-02-23T05:42:36;6.90;40.30
33067;DHT22;19428;49.024;8.366;2024-02-23T05:45:02;7.00;44.40
33067;DHT22;19428;49.024;8.366;2024-02-23T05:47:30;6.80;50.00
33067;DHT22;19428;49.024;8.366;2024-02-23T05:49:55;6.70;52.00
33067;DHT22;19428;49.024;8.366;2024-02-23T05:52:21;6.70;49.40
33067;DHT22;19428;49.024;8.366;2024-02-23T05:54:47;6.70;45.50
33067;DHT22;19428;49.024;8.366;2024-02-23T05:57:12;6.60;46.10
33067;DHT22;19428;49.024;8.366;2024-02-23T05:59:38;6.70;42.50
33067;DHT22;19428;49.024;8.366;2024-02-23T06:02:04;6.60;42.90
33067;DHT22;19428;49.024;8.366;2024-02-23T06:04:29;6.60;40.30
33067;DHT22;19428;49.024;8.366;2024-02-23T06:06:55;6.50;39.60
33067;DHT22;19428;49.024;8.366;2024-02-23T06:09:21;6.50;36.40
33067;DHT22;19428;49.024;8.366;2024-02-23T06:11:47;6.50;35.00
33067;DHT22;19428;49.024;8.366;2024-02-23T06:14:13;6.50;36.00
33067;DHT22;19428;49.024;8.366;2024-02-23T06:16:39;6.50;34.90
33067;DHT22;19428;49.024;8.366;2024-02-23T06:19:06;6.40;37.80
33067;DHT22;19428;49.024;8.366;2024-02-23T06:21:31;6.50;31.30
33067;DHT22;19428;49.024;8.366;2024-02-23T06:23:57;6.40;35.10
33067;DHT22;19428;49.024;8.366;2024-02-23T06:26:23;6.40;37.90
33067;DHT22;19428;49.024;8.366;2024-02-23T06:28:48;6.40;38.20
33067;DHT22;19428;49.024;8.366;2024-02-23T06:31:14;6.50;34.60
33067;DHT22;19428;49.024;8.366;2024-02-23T06:33:40;6.60;34.20
33067;DHT22;19428;49.024;8.366;2024-02-23T06:36:06;6.60;34.40
33067;DHT22;19428;49.024;8.366;2024-02-23T06:38:33;6.60;36.20
33067;DHT22;19428;49.024;8.366;2024-02-23T06:40:59;6.70;34.90
33067;DHT22;19428;49.024;8.366;2024-02-23T06:43:24;6.70;37.50
33067;DHT22;19428;49.024;8.366;2024-02-23T06:45:50;6.70;42.50
33067;DHT22;19428;49.024;8.366;2024-02-23T06:48:16;6.60;43.60
33067;DHT22;19428;49.024;8.366;2024-02-23T06:50:42;6.60;51.90
33067;DHT22;19428;49.024;8.366;2024-02-23T06:53:07;6.70;52.60
33067;DHT22;19428;49.024;8.366;2024-02-23T06:55:34;6.60;56.30
33067;DHT22;19428;49.024;8.366;2024-02-23T06:58:00;6.70;59.70
33067;DHT22;19428;49.024;8.366;2024-02-23T07:00:26;6.60;66.40
33067;DHT22;19428;49.024;8.366;2024-02-23T07:02:51;6.70;68.20
33067;DHT22;19428;49.024;8.366;2024-02-23T07:05:17;6.60;68.30
33067;DHT22;19428;49.024;8.366;2024-02-23T07:07:43;6.60;75.10
33067;DHT22;19428;49.024;8.366;2024-02-23T07:10:09;6.60;72.90
33067;DHT22;19428;49.024;8.366;2024-02-23T07:12:36;6.60;64.10
33067;DHT22;19428;49.024;8.366;2024-02-23T07:15:01;6.60;65.40
33067;DHT22;19428;49.024;8.366;2024-02-23T07:17:27;6.60;59.50
33067;DHT22;19428;49.024;8.366;2024-02-23T07:19:53;6.70;54.90
33067;DHT22;19428;49.024;8.366;2024-02-23T07:22:19;6.80;52.10
33067;DHT22;19428;49.024;8.366;2024-02-23T07:24:45;6.70;53.10
33067;DHT22;19428;49.024;8.366;2024-02-23T07:27:12;6.70;51.90
33067;DHT22;19428;49.024;8.366;2024-02-23T07:29:38;6.70;55.90
33067;DHT22;19428;49.024;8.366;2024-02-23T07:32:04;6.70;54.30
33067;DHT22;19428;49.024;8.366;2024-02-23T07:34:30;6.70;54.60
33067;DHT22;19428;49.024;8.366;2024-02-23T07:36:56;6.70;56.10
33067;DHT22;19428;49.024;8.366;2024-02-23T07:39:22;6.70;53.30
33067;DHT22;19428;49.024;8.366;2024-02-23T07:41:48;6.70;55.10
33067;DHT22;19428;49.024;8.366;2024-02-23T07:44:13;6.70;59.50
33067;DHT22;19428;49.024;8.366;2024-02-23T07:46:39;6.70;59.00
33067;DHT22;19428;49.024;8.366;2024-02-23T07:49:05;6.80;45.50
33067;DHT22;19428;49.024;8.366;2024-02-23T07:51:35;6.90;46.10
33067;DHT22;19428;49.024;8.366;2024-02-23T07:54:00;7.00;43.60
33067;DHT22;19428;49.024;8.366;2024-02-23T07:56:26;7.10;44.80
33067;DHT22;19428;49.024;8.366;2024-02-23T07:58:51;7.10;41.10
33067;DHT22;19428;49.024;8.366;2024-02-23T08:01:17;7.20;42.40
33067;DHT22;19428;49.024;8.366;2024-02-23T08:03:45;7.20;45.50
33067;DHT22;19428;49.024;8.366;2024-02-23T08:06:11;7.30;46.10
33067;DHT22;19428;49.024;8.366;2024-02-23T08:08:38;7.40;46.50
33067;DHT22;19428;49.024;8.366;2024-02-23T08:11:04;7.40;46.90
33067;DHT22;19428;49.024;8.366;2024-02-23T08:13:30;7.50;46.70
33067;DHT22;19428;49.024;8.366;2024-02-23T08:15:59;7.60;45.50
33067;DHT22;19428;49.024;8.366;2024-02-23T08:18:25;7.60;36.40
33067;DHT22;19428;49.024;8.366;2024-02-23T08:20:51;7.70;32.60
33067;DHT22;19428;49.024;8.366;2024-02-23T08:23:17;7.90;29.20
33067;DHT22;19428;49.024;8.366;2024-02-23T08:25:44;8.00;30.30
33067;DHT22;19428;49.024;8.366;2024-02-23T08:28:10;8.00;21.20
33067;DHT22;19428;49.024;8.366;2024-02-23T08:30:35;8.10;18.80
33067;DHT22;19428;49.024;8.366;2024-02-23T08:33:01;8.30;20.10
33067;DHT22;19428;49.024;8.366;2024-02-23T08:35:26;8.20;14.70
33067;DHT22;19428;49.024;8.366;2024-02-23T08:37:52;8.40;16.40
33067;DHT22;19428;49.024;8.366;2024-02-23T08:40:18;8.40;10.10
33067;DHT22;19428;49.024;8.366;2024-02-23T08:42:43;8.40;3.50
33067;DHT22;19428;49.024;8.366;2024-02-23T08:45:09;8.60;4.10
33067;DHT22;19428;49.024;8.366;2024-02-23T08:47:37;8.60;1.70
33067;DHT22;19428;49.024;8.366;2024-02-23T08:50:03;8.70;1.00
33067;DHT22;19428;49.024;8.366;2024-02-23T08:52:29;8.80;1.00
33067;DHT22;19428;49.024;8.366;2024-02-23T08:54:56;8.90;1.00
33067;DHT22;19428;49.024;8.366;2024-02-23T08:57:22;9.00;1.00
33067;DHT22;19428;49.024;8.366;2024-02-23T08:59:51;8.90;1.00
33067;DHT22;19428;49.024;8.366;2024-02-23T09:02:17;8.80;1.00
33067;DHT22;19428;49.024;8.366;2024-02-23T09:04:42;8.90;1.00
33067;DHT22;19428;49.024;8.366;2024-02-23T09:07:10;8.90;1.00
33067;DHT22;19428;49.024;8.366;2024-02-23T09:09:36;9.10;1.00
33067;DHT22;19428;49.024;8.366;2024-02-23T09:12:01;9.00;1.00
33067;DHT22;19428;49.024;8.366;2024-02-23T09:14:27;8.90;1.00
33067;DHT22;19428;49.024;8.366;2024-02-23T09:16:53;8.90;1.00
33067;DHT22;19428;49.024;8.366;2024-02-23T09:19:19;9.00;1.00
33067;DHT22;19428;49.024;8.366;2024-02-23T09:21:45;9.20;1.00
33067;DHT22;19428;49.024;8.366;2024-02-23T09:24:10;9.00;1.00
33067;DHT22;19428;49.024;8.366;2024-02-23T09:26:36;9.10;1.00
33067;DHT22;19428;49.024;8.366;2024-02-23T09:29:02;9.30;1.00
33067;DHT22;19428;49.024;8.366;2024-02-23T09:31:27;9.10;1.00
33067;DHT22;19428;49.024;8.366;2024-02-23T09:33:57;9.10;1.00
33067;DHT22;19428;49.024;8.366;2024-02-23T09:36:23;9.10;1.00
33067;DHT22;19428;49.024;8.366;2024-02-23T09:38:48;9.10;1.00
33067;DHT22;19428;49.024;8.366;2024-02-23T09:41:23;9.20;1.00
33067;DHT22;19428;49.024;8.366;2024-02-23T09:43:49;9.40;1.00
33067;DHT22;19428;49.024;8.366;2024-02-23T09:46:16;9.20;1.00
33067;DHT22;19428;49.024;8.366;2024-02-23T09:48:43;9.20;1.00
33067;DHT22;19428;49.024;8.366;2024-02-23T09:51:10;9.20;1.00
33067;DHT22;19428;49.024;8.366;2024-02-23T09:53:37;9.20;1.00
33067;DHT22;19428;49.024;8.366;2024-02-23T09:56:04;9.30;1.00
33067;DHT22;19428;49.024;8.366;2024-02-23T09:58:34;9.20;1.00
33067;DHT22;19428;49.024;8.366;2024-02-23T10:01:02;9.30;1.00
33067;DHT22;19428;49.024;8.366;2024-02-23T10:03:28;9.10;1.00
33067;DHT22;19428;49.024;8.366;2024-02-23T10:05:56;9.30;1.00
33067;DHT22;19428;49.024;8.366;2024-02-23T10:08:22;9.20;1.00
33067;DHT22;19428;49.024;8.366;2024-02-23T10:10:47;9.40;1.00
33067;DHT22;19428;49.024;8.366;2024-02-23T10:13:21;9.40;1.00
33067;DHT22;19428;49.024;8.366;2024-02-23T10:15:47;9.40;1.00
33067;DHT22;19428;49.024;8.366;2024-02-23T10:18:13;9.50;1.00
33067;DHT22;19428;49.024;8.366;2024-02-23T10:20:40;9.40;1.00
33067;DHT22;19428;49.024;8.366;2024-02-23T10:23:07;9.60;1.00
33067;DHT22;19428;49.024;8.366;2024-02-23T10:25:36;9.40;1.00
33067;DHT22;19428;49.024;8.366;2024-02-23T10:28:03;9.60;1.00
33067;DHT22;19428;49.024;8.366;2024-02-23T10:30:29;9.60;1.00
33067;DHT22;19428;49.024;8.366;2024-02-23T10:32:56;9.80;1.00
33067;DHT22;19428;49.024;8.366;2024-02-23T10:35:23;9.90;1.00
33067;DHT22;19428;49.024;8.366;2024-02-23T10:37:50;9.90;1.00
33067;DHT22;19428;49.024;8.366;2024-02-23T10:40:17;9.90;1.00
33067;DHT22;19428;49.024;8.366;2024-02-23T10:42:47;9.80;1.00
33067;DHT22;19428;49.024;8.366;2024-02-23T10:45:20;9.90;1.00
33067;DHT22;19428;49.024;8.366;2024-02-23T10:47:48;9.80;1.00
33067;DHT22;19428;49.024;8.366;2024-02-23T10:50:14;9.90;1.00
33067;DHT22;19428;49.024;8.366;2024-02-23T10:52:43;10.00;1.00
33067;DHT22;19428;49.024;8.366;2024-02-23T10:55:09;10.30;1.00
33067;DHT22;19428;49.024;8.366;2024-02-23T10:57:35;10.40;1.00
33067;DHT22;19428;49.024;8.366;2024-02-23T11:00:03;10.50;1.00
33067;DHT22;19428;49.024;8.366;2024-02-23T11:02:40;10.40;1.00
33067;DHT22;19428;49.024;8.366;2024-02-23T11:05:07;10.30;1.00
33067;DHT22;19428;49.024;8.366;2024-02-23T11:07:38;10.10;1.00
33067;DHT22;19428;49.024;8.366;2024-02-23T11:10:05;9.90;1.00
33067;DHT22;19428;49.024;8.366;2024-02-23T11:12:31;9.80;1.00
33067;DHT22;19428;49.024;8.366;2024-02-23T11:14:58;9.90;1.00
33067;DHT22;19428;49.024;8.366;2024-02-23T11:17:30;9.70;1.00
33067;DHT22;19428;49.024;8.366;2024-02-23T11:19:56;9.70;1.00
33067;DHT22;19428;49.024;8.366;2024-02-23T11:24:51;9.70;1.00
33067;DHT22;19428;49.024;8.366;2024-02-23T11:27:17;9.60;1.00
33067;DHT22;19428;49.024;8.366;2024-02-23T11:29:45;9.60;1.00
33067;DHT22;19428;49.024;8.366;2024-02-23T11:32:13;9.80;1.00
33067;DHT22;19428;49.024;8.366;2024-02-23T11:34:39;10.10;1.00
33067;DHT22;19428;49.024;8.366;2024-02-23T11:37:11;10.30;1.00
33067;DHT22;19428;49.024;8.366;2024-02-23T11:39:40;10.60;1.00
33067;DHT22;19428;49.024;8.366;2024-02-23T11:42:09;10.90;1.00
33067;DHT22;19428;49.024;8.366;2024-02-23T11:44:34;10.60;1.00
33067;DHT22;19428;49.024;8.366;2024-02-23T11:47:00;10.60;1.00
33067;DHT22;19428;49.024;8.366;2024-02-23T11:49:29;10.30;1.00
33067;DHT22;19428;49.024;8.366;2024-02-23T11:51:55;10.20;1.00
33067;DHT22;19428;49.024;8.366;2024-02-23T11:54:22;10.20;1.00
33067;DHT22;19428;49.024;8.366;2024-02-23T11:56:48;10.20;1.00
33067;DHT22;19428;49.024;8.366;2024-02-23T11:59:15;10.30;1.00
33067;DHT22;19428;49.024;8.366;2024-02-23T12:01:41;10.50;1.00
33067;DHT22;19428;49.024;8.366;2024-02-23T12:04:07;10.20;1.00
33067;DHT22;19428;49.024;8.366;2024-02-23T12:06:33;10.20;1.00
33067;DHT22;19428;49.024;8.366;2024-02-23T12:09:00;10.40;1.00
33067;DHT22;19428;49.024;8.366;2024-02-23T12:11:26;10.30;1.00
33067;DHT22;19428;49.024;8.366;2024-02-23T12:13:53;10.30;1.00
33067;DHT22;19428;49.024;8.366;2024-02-23T12:16:20;10.40;1.00
33067;DHT22;19428;49.024;8.366;2024-02-23T12:18:53;10.20;1.00
33067;DHT22;19428;49.024;8.366;2024-02-23T12:21:19;10.10;1.00
33067;DHT22;19428;49.024;8.366;2024-02-23T12:23:48;10.30;1.00
33067;DHT22;19428;49.024;8.366;2024-02-23T12:26:16;10.40;1.00
33067;DHT22;19428;49.024;8.366;2024-02-23T12:28:42;10.60;1.00
33067;DHT22;19428;49.024;8.366;2024-02-23T12:31:08;10.90;1.00
33067;DHT22;19428;49.024;8.366;2024-02-23T12:33:35;10.90;1.00
33067;DHT22;19428;49.024;8.366;2024-02-23T12:36:03;11.30;1.00
33067;DHT22;19428;49.024;8.366;2024-02-23T12:38:29;11.20;1.00
33067;DHT22;19428;49.024;8.366;2024-02-23T12:40:55;11.20;1.00
33067;DHT22;19428;49.024;8.366;2024-02-23T12:43:20;10.90;1.00
33067;DHT22;19428;49.024;8.366;2024-02-23T12:45:47;10.70;1.00
33067;DHT22;19428;49.024;8.366;2024-02-23T12:48:16;10.70;1.00
33067;DHT22;19428;49.024;8.366;2024-02-23T12:50:42;10.50;1.00
33067;DHT22;19428;49.024;8.366;2024-02-23T12:53:09;10.40;1.00
33067;DHT22;19428;49.024;8.366;2024-02-23T12:55:35;10.60;1.00
33067;DHT22;19428;49.024;8.366;2024-02-23T12:58:02;10.50;1.00
33067;DHT22;19428;49.024;8.366;2024-02-23T13:00:28;10.40;1.00
33067;DHT22;19428;49.024;8.366;2024-02-23T13:02:53;10.40;1.00
33067;DHT22;19428;49.024;8.366;2024-02-23T13:05:19;10.50;1.00
33067;DHT22;19428;49.024;8.366;2024-02-23T13:07:45;10.50;1.00
33067;DHT22;19428;49.024;8.366;2024-02-23T13:10:11;10.50;1.00
33067;DHT22;19428;49.024;8.366;2024-02-23T13:12:36;10.60;1.00
33067;DHT22;19428;49.024;8.366;2024-02-23T13:15:02;10.60;1.00
33067;DHT22;19428;49.024;8.366;2024-02-23T13:17:28;10.60;1.00
33067;DHT22;19428;49.024;8.366;2024-02-23T13:19:54;10.60;1.00
33067;DHT22;19428;49.024;8.366;2024-02-23T13:22:20;10.80;1.00
33067;DHT22;19428;49.024;8.366;2024-02-23T13:24:45;10.70;1.00
33067;DHT22;19428;49.024;8.366;2024-02-23T13:27:11;10.60;1.00
33067;DHT22;19428;49.024;8.366;2024-02-23T13:29:36;10.80;1.00
33067;DHT22;19428;49.024;8.366;2024-02-23T13:32:02;11.30;1.00
33067;DHT22;19428;49.024;8.366;2024-02-23T13:34:27;11.10;1.00
33067;DHT22;19428;49.024;8.366;2024-02-23T13:36:53;11.00;1.00
33067;DHT22;19428;49.024;8.366;2024-02-23T13:39:19;10.90;1.00
33067;DHT22;19428;49.024;8.366;2024-02-23T13:41:44;10.80;1.00
33067;DHT22;19428;49.024;8.366;2024-02-23T13:44:10;10.80;1.00
33067;DHT22;19428;49.024;8.366;2024-02-23T13:46:38;10.90;1.00
33067;DHT22;19428;49.024;8.366;2024-02-23T13:49:05;11.00;1.00
33067;DHT22;19428;49.024;8.366;2024-02-23T13:51:35;10.90;1.00
33067;DHT22;19428;49.024;8.366;2024-02-23T13:54:00;11.00;1.00
33067;DHT22;19428;49.024;8.366;2024-02-23T13:56:26;11.10;1.00
33067;DHT22;19428;49.024;8.366;2024-02-23T13:58:52;11.00;1.00
33067;DHT22;19428;49.024;8.366;2024-02-23T14:01:17;10.90;1.00
33067;DHT22;19428;49.024;8.366;2024-02-23T14:03:43;10.70;1.00
33067;DHT22;19428;49.024;8.366;2024-02-23T14:06:08;10.70;1.00
33067;DHT22;19428;49.024;8.366;2024-02-23T14:08:35;10.80;1.00
33067;DHT22;19428;49.024;8.366;2024-02-23T14:11:03;10.80;1.00
33067;DHT22;19428;49.024;8.366;2024-02-23T14:13:31;10.80;1.00
33067;DHT22;19428;49.024;8.366;2024-02-23T14:15:56;10.90;1.00
33067;DHT22;19428;49.024;8.366;2024-02-23T14:18:22;11.00;1.00
33067;DHT22;19428;49.024;8.366;2024-02-23T14:20:48;11.00;1.00
33067;DHT22;19428;49.024;8.366;2024-02-23T14:23:13;11.00;1.00
33067;DHT22;19428;49.024;8.366;2024-02-23T14:25:39;11.20;1.00
33067;DHT22;19428;49.024;8.366;2024-02-23T14:28:04;11.00;1.00
33067;DHT22;19428;49.024;8.366;2024-02-23T14:30:30;10.90;1.00
33067;DHT22;19428;49.024;8.366;2024-02-23T14:32:55;10.80;1.00
33067;DHT22;19428;49.024;8.366;2024-02-23T14:35:21;10.80;1.00
33067;DHT22;19428;49.024;8.366;2024-02-23T14:37:47;10.80;1.00
33067;DHT22;19428;49.024;8.366;2024-02-23T14:40:12;11.40;1.00
33067;DHT22;19428;49.024;8.366;2024-02-23T14:42:40;11.70;1.00
33067;DHT22;19428;49.024;8.366;2024-02-23T14:45:06;11.80;1.00
33067;DHT22;19428;49.024;8.366;2024-02-23T14:47:32;11.70;1.00
33067;DHT22;19428;49.024;8.366;2024-02-23T14:49:58;11.90;1.00
33067;DHT22;19428;49.024;8.366;2024-02-23T14:52:23;12.10;1.00
33067;DHT22;19428;49.024;8.366;2024-02-23T14:54:49;12.00;1.00
33067;DHT22;19428;49.024;8.366;2024-02-23T14:57:14;11.80;1.00
33067;DHT22;19428;49.024;8.366;2024-02-23T14:59:40;12.00;1.00
33067;DHT22;19428;49.024;8.366;2024-02-23T15:02:19;12.10;1.00
33067;DHT22;19428;49.024;8.366;2024-02-23T15:04:45;12.10;1.00
33067;DHT22;19428;49.024;8.366;2024-02-23T15:07:10;12.50;1.00
33067;DHT22;19428;49.024;8.366;2024-02-23T15:09:36;12.20;1.00
33067;DHT22;19428;49.024;8.366;2024-02-23T15:12:02;11.80;1.00
33067;DHT22;19428;49.024;8.366;2024-02-23T15:14:27;12.00;1.00
33067;DHT22;19428;49.024;8.366;2024-02-23T15:16:53;12.30;1.00
33067;DHT22;19428;49.024;8.366;2024-02-23T15:19:18;11.70;1.00
33067;DHT22;19428;49.024;8.366;2024-02-23T15:21:44;11.70;1.00
33067;DHT22;19428;49.024;8.366;2024-02-23T15:24:10;11.80;1.00
33067;DHT22;19428;49.024;8.366;2024-02-23T15:26:35;11.60;1.00
33067;DHT22;19428;49.024;8.366;2024-02-23T15:29:01;11.40;1.00
33067;DHT22;19428;49.024;8.366;2024-02-23T15:31:29;11.60;1.00
33067;DHT22;19428;49.024;8.366;2024-02-23T15:33:54;11.90;1.00
33067;DHT22;19428;49.024;8.366;2024-02-23T15:36:21;12.00;1.00
33067;DHT22;19428;49.024;8.366;2024-02-23T15:38:47;11.90;1.00
33067;DHT22;19428;49.024;8.366;2024-02-23T15:41:13;11.70;1.00
33067;DHT22;19428;49.024;8.366;2024-02-23T15:43:38;11.60;1.00